createdAt,value
2019-04-21T00:02:05.661Z,78.60
2019-04-21T00:04:48.213Z,77.50
2019-04-21T00:07:25.056Z,76.70
2019-04-21T00:09:58.259Z,75.80
2019-04-21T00:12:22.840Z,75.30
2019-04-21T00:14:46.091Z,75.30
2019-04-21T00:17:12.911Z,74.90
2019-04-21T00:19:40.861Z,74.40
2019-04-21T00:22:23.178Z,74.40
2019-04-21T00:24:56.191Z,74.40
2019-04-21T00:27:29.209Z,74.70
2019-04-21T00:30:01.763Z,74.80
2019-04-21T00:32:25.712Z,72.70
2019-04-21T00:34:48.442Z,74.20
2019-04-21T00:37:24.182Z,74.20
2019-04-21T00:40:03.663Z,74.40
2019-04-21T00:42:34.285Z,74.90
2019-04-21T00:44:59.175Z,75.40
2019-04-21T00:47:36.583Z,75.70
2019-04-21T00:50:08.091Z,75.40
2019-04-21T00:55:24.439Z,75.50
2019-04-21T01:00:18.689Z,74.60
2019-04-21T01:02:52.524Z,74.80
2019-04-21T01:05:16.695Z,74.40
2019-04-21T01:08:00.603Z,74.70
2019-04-21T01:10:06.389Z,75.00
2019-04-21T01:12:53.576Z,73.50
2019-04-21T01:15:26.148Z,73.80
2019-04-21T01:17:48.099Z,73.50
2019-04-21T01:20:12.136Z,73.10
2019-04-21T01:22:26.059Z,71.30
2019-04-21T01:25:04.584Z,71.00
2019-04-21T01:27:45.617Z,69.40
2019-04-21T01:30:16.478Z,68.80
2019-04-21T01:32:50.153Z,68.20
2019-04-21T01:35:17.320Z,66.60
2019-04-21T01:37:50.897Z,65.20
2019-04-21T01:40:26.037Z,63.90
2019-04-21T01:42:45.966Z,63.50
2019-04-21T01:45:15.730Z,63.00
2019-04-21T01:47:49.068Z,62.70
2019-04-21T01:50:07.017Z,62.40
2019-04-21T01:53:11.559Z,62.40
2019-04-21T01:55:24.936Z,62.80
2019-04-21T01:57:54.041Z,62.00
2019-04-21T02:00:23.464Z,61.90
2019-04-21T02:03:10.349Z,61.40
2019-04-21T02:05:40.864Z,61.30
2019-04-21T02:08:02.551Z,60.50
2019-04-21T02:10:34.675Z,61.00
2019-04-21T02:13:03.476Z,60.40
2019-04-21T02:15:37.895Z,60.60
2019-04-21T02:17:59.691Z,61.20
2019-04-21T02:20:28.118Z,61.60
2019-04-21T02:23:26.383Z,61.90
2019-04-21T02:25:39.999Z,62.50
2019-04-21T02:28:11.412Z,62.30
2019-04-21T02:30:56.611Z,62.70
2019-04-21T02:33:25.876Z,62.70
2019-04-21T02:36:15.395Z,61.90
2019-04-21T02:38:28.031Z,62.00
2019-04-21T02:43:21.118Z,62.20
2019-04-21T02:45:47.901Z,63.00
2019-04-21T02:48:19.674Z,63.50
2019-04-21T02:50:47.209Z,63.70
2019-04-21T02:55:51.394Z,63.60
2019-04-21T02:58:29.441Z,63.80
2019-04-21T03:01:50.332Z,64.00
2019-04-21T03:03:50.741Z,64.50
2019-04-21T03:06:27.204Z,64.60
2019-04-21T03:09:05.906Z,64.60
2019-04-21T03:11:22.011Z,64.80
2019-04-21T03:13:57.346Z,63.80
2019-04-21T03:21:22.196Z,63.80
2019-04-21T03:23:58.346Z,63.70
2019-04-21T03:28:54.642Z,63.50
2019-04-21T03:32:05.726Z,63.40
2019-04-21T03:34:27.527Z,63.30
2019-04-21T03:36:47.780Z,63.30
2019-04-21T03:41:31.653Z,62.90
2019-04-21T03:43:59.267Z,62.10
2019-04-21T03:49:04.644Z,62.00
2019-04-21T03:51:32.992Z,61.80
2019-04-21T04:04:20.202Z,60.90
2019-04-21T04:07:05.731Z,60.40
2019-04-21T04:14:34.237Z,60.60
2019-04-21T04:17:04.734Z,60.50
2019-04-21T04:19:34.412Z,60.70
2019-04-21T04:22:09.233Z,60.30
2019-04-21T04:24:33.996Z,59.70
2019-04-21T04:29:24.520Z,59.50
2019-04-21T04:31:55.330Z,59.50
2019-04-21T04:34:49.838Z,59.70
2019-04-21T04:37:05.488Z,59.90
2019-04-21T04:39:42.986Z,60.90
2019-04-21T04:47:20.412Z,62.70
2019-04-21T04:59:49.609Z,63.60
2019-04-21T05:02:27.958Z,63.70
2019-04-21T05:05:09.177Z,63.60
2019-04-21T05:07:27.289Z,63.70
2019-04-21T05:09:57.663Z,63.50
2019-04-21T05:14:55.275Z,63.90
2019-04-21T05:17:30.860Z,64.20
2019-04-21T05:20:01.826Z,64.20
2019-04-21T05:22:22.161Z,63.90
2019-04-21T05:24:44.259Z,64.00
2019-04-21T05:27:29.434Z,63.80
2019-04-21T05:30:10.369Z,63.40
2019-04-21T05:32:45.163Z,63.10
2019-04-21T05:35:14.102Z,63.00
2019-04-21T05:37:56.665Z,63.70
2019-04-21T05:40:20.046Z,63.60
2019-04-21T05:42:49.623Z,63.60
2019-04-21T05:45:37.359Z,63.40
2019-04-21T05:48:12.171Z,63.10
2019-04-21T05:50:32.113Z,63.00
2019-04-21T05:53:00.783Z,62.60
2019-04-21T05:55:56.707Z,62.70
2019-04-21T05:58:21.412Z,63.10
2019-04-21T06:01:47.083Z,62.90
2019-04-21T06:03:09.869Z,63.40
2019-04-21T06:05:44.545Z,63.20
2019-04-21T06:08:12.916Z,62.60
2019-04-21T06:10:43.304Z,61.80
2019-04-21T06:13:12.930Z,61.90
2019-04-21T06:15:44.569Z,62.20
2019-04-21T06:18:13.715Z,62.10
2019-04-21T06:20:40.684Z,61.60
2019-04-21T06:23:13.565Z,61.70
2019-04-21T06:25:54.923Z,61.10
2019-04-21T06:28:12.098Z,60.80
2019-04-21T06:30:48.643Z,60.20
2019-04-21T06:33:16.889Z,59.90
2019-04-21T06:36:21.608Z,59.90
2019-04-21T06:38:54.469Z,60.10
2019-04-21T06:41:21.616Z,59.60
2019-04-21T06:43:49.964Z,59.80
2019-04-21T06:46:21.142Z,59.40
2019-04-21T06:48:49.871Z,59.80
2019-04-21T06:51:16.981Z,59.50
2019-04-21T06:53:52.455Z,59.30
2019-04-21T06:56:15.246Z,59.20
2019-04-21T06:58:47.396Z,58.90
2019-04-21T07:01:19.051Z,58.80
2019-04-21T07:03:54.978Z,58.50
2019-04-21T07:06:12.666Z,57.90
2019-04-21T07:08:56.635Z,58.30
2019-04-21T07:11:14.764Z,58.50
2019-04-21T07:13:49.026Z,58.10
2019-04-21T07:16:18.903Z,58.20
2019-04-21T07:18:58.647Z,57.50
2019-04-21T07:21:25.505Z,57.80
2019-04-21T07:23:53.838Z,57.80
2019-04-21T07:26:19.508Z,57.30
2019-04-21T07:28:56.819Z,57.50
2019-04-21T07:31:17.806Z,57.20
2019-04-21T07:33:57.581Z,56.50
2019-04-21T07:36:35.505Z,56.50
2019-04-21T07:38:49.889Z,56.00
2019-04-21T07:41:15.821Z,56.10
2019-04-21T07:43:55.692Z,55.50
2019-04-21T07:46:25.442Z,55.30
2019-04-21T07:49:01.828Z,55.60
2019-04-21T07:51:42.318Z,54.90
2019-04-21T07:54:15.360Z,54.90
2019-04-21T07:56:26.661Z,55.50
2019-04-21T07:59:30.344Z,53.90
2019-04-21T08:01:37.357Z,53.00
2019-04-21T08:04:33.218Z,52.10
2019-04-21T08:06:43.801Z,52.20
2019-04-21T08:09:12.289Z,52.30
2019-04-21T08:11:38.649Z,52.80
2019-04-21T08:14:13.917Z,52.80
2019-04-21T08:16:44.957Z,52.30
2019-04-21T08:19:15.570Z,53.50
2019-04-21T08:24:17.774Z,54.40
2019-04-21T08:26:43.324Z,54.10
2019-04-21T08:29:29.717Z,53.60
2019-04-21T08:32:00.148Z,54.10
2019-04-21T08:36:46.150Z,54.80
2019-04-21T08:39:13.408Z,53.80
2019-04-21T08:41:43.777Z,53.20
2019-04-21T08:44:20.920Z,52.40
2019-04-21T08:46:49.124Z,52.10
2019-04-21T08:49:15.291Z,52.00
2019-04-21T08:51:57.169Z,52.40
2019-04-21T08:54:23.604Z,52.30
2019-04-21T08:56:59.358Z,52.20
2019-04-21T08:59:36.350Z,53.30
2019-04-21T09:02:14.479Z,53.40
2019-04-21T09:04:41.270Z,52.80
2019-04-21T09:07:21.345Z,53.70
2019-04-21T09:09:59.562Z,53.60
2019-04-21T09:12:15.003Z,53.30
2019-04-21T09:14:45.386Z,52.80
2019-04-21T09:17:10.738Z,52.30
2019-04-21T09:19:52.856Z,52.80
2019-04-21T09:22:12.873Z,52.20
2019-04-21T09:24:46.956Z,52.10
2019-04-21T09:27:18.661Z,52.20
2019-04-21T09:29:36.642Z,52.30
2019-04-21T09:32:00.021Z,52.60
2019-04-21T09:34:35.774Z,52.50
2019-04-21T09:37:16.437Z,51.70
2019-04-21T09:39:31.933Z,51.30
2019-04-21T09:42:02.488Z,50.40
2019-04-21T09:44:36.067Z,50.20
2019-04-21T09:47:03.170Z,49.70
2019-04-21T09:49:33.281Z,49.10
2019-04-21T09:52:02.234Z,49.00
2019-04-21T09:54:35.151Z,48.70
2019-04-21T09:57:05.840Z,48.00
2019-04-21T09:59:37.134Z,47.70
2019-04-21T10:02:09.578Z,47.10
2019-04-21T10:04:33.636Z,47.10
2019-04-21T10:07:02.533Z,46.90
2019-04-21T10:09:31.228Z,46.60
2019-04-21T10:12:00.840Z,46.30
2019-04-21T10:14:30.854Z,46.70
2019-04-21T10:17:19.805Z,47.20
2019-04-21T10:19:48.590Z,47.50
2019-04-21T10:22:17.269Z,47.50
2019-04-21T10:24:46.741Z,48.20
2019-04-21T10:27:16.985Z,47.50
2019-04-21T10:29:47.204Z,46.10
2019-04-21T10:32:18.636Z,46.70
2019-04-21T10:34:47.492Z,47.00
2019-04-21T10:37:16.738Z,46.80
2019-04-21T10:39:45.601Z,46.30
2019-04-21T10:42:15.513Z,45.90
2019-04-21T10:44:45.222Z,46.40
2019-04-21T10:47:14.490Z,46.90
2019-04-21T10:49:46.513Z,47.40
2019-04-21T10:52:15.431Z,47.20
2019-04-21T10:55:08.283Z,46.60
2019-04-21T10:57:19.994Z,45.70
2019-04-21T10:59:51.040Z,45.90
2019-04-21T11:02:39.138Z,45.60
2019-04-21T11:05:09.091Z,45.20
2019-04-21T11:07:55.226Z,45.30
2019-04-21T11:10:16.111Z,45.40
2019-04-21T11:12:47.635Z,45.80
2019-04-21T11:15:15.395Z,47.00
2019-04-21T11:17:45.556Z,46.60
2019-04-21T11:20:17.098Z,47.10
2019-04-21T11:22:47.161Z,47.10
2019-04-21T11:25:16.188Z,46.90
2019-04-21T11:27:47.035Z,46.90
2019-04-21T11:30:15.993Z,46.50
2019-04-21T11:32:46.390Z,46.30
2019-04-21T11:35:15.384Z,46.00
2019-04-21T11:37:46.204Z,45.90
2019-04-21T11:40:18.198Z,45.80
2019-04-21T11:42:46.317Z,45.60
2019-04-21T11:45:34.679Z,46.30
2019-04-21T11:48:16.981Z,46.30
2019-04-21T11:50:46.702Z,45.40
2019-04-21T11:53:16.738Z,45.30
2019-04-21T11:55:48.554Z,45.60
2019-04-21T11:58:16.197Z,45.70
2019-04-21T12:00:47.476Z,45.10
2019-04-21T12:03:17.366Z,45.70
2019-04-21T12:05:47.747Z,46.40
2019-04-21T12:08:26.313Z,46.80
2019-04-21T12:10:47.355Z,46.80
2019-04-21T12:13:18.221Z,47.20
2019-04-21T12:15:47.168Z,47.70
2019-04-21T12:18:16.011Z,48.00
2019-04-21T12:20:45.162Z,48.30
2019-04-21T12:23:14.342Z,48.40
2019-04-21T12:25:49.608Z,48.50
2019-04-21T12:28:19.721Z,48.20
2019-04-21T12:30:51.674Z,47.70
2019-04-21T12:33:22.307Z,47.40
2019-04-21T12:35:51.573Z,47.40
2019-04-21T12:38:33.335Z,47.20
2019-04-21T12:40:50.874Z,47.20
2019-04-21T12:43:20.900Z,46.80
2019-04-21T12:45:49.759Z,46.80
2019-04-21T12:48:20.019Z,46.60
2019-04-21T12:50:50.277Z,46.30
2019-04-21T12:53:19.363Z,46.20
2019-04-21T12:55:49.609Z,46.30
2019-04-21T12:58:19.371Z,46.40
2019-04-21T13:00:49.496Z,46.40
2019-04-21T13:03:21.624Z,46.30
2019-04-21T13:05:49.545Z,45.40
2019-04-21T13:08:19.785Z,46.00
2019-04-21T13:10:51.861Z,45.50
2019-04-21T13:13:21.946Z,44.60
2019-04-21T13:15:51.677Z,45.00
2019-04-21T13:18:21.112Z,45.00
2019-04-21T13:20:51.766Z,44.60
2019-04-21T13:23:20.921Z,44.90
2019-04-21T13:25:50.021Z,45.30
2019-04-21T13:28:18.857Z,45.70
2019-04-21T13:30:48.606Z,45.70
2019-04-21T13:33:18.814Z,45.40
2019-04-21T13:35:48.853Z,46.20
2019-04-21T13:38:26.992Z,45.30
2019-04-21T13:41:10.528Z,45.90
2019-04-21T13:43:27.351Z,45.90
2019-04-21T13:45:57.395Z,45.80
2019-04-21T13:48:26.515Z,45.80
2019-04-21T13:50:55.482Z,45.10
2019-04-21T13:53:25.015Z,44.80
2019-04-21T13:55:54.332Z,44.30
2019-04-21T13:58:24.206Z,44.70
2019-04-21T14:00:55.987Z,45.00
2019-04-21T14:03:26.741Z,45.10
2019-04-21T14:05:56.183Z,45.20
2019-04-21T14:08:29.256Z,44.50
2019-04-21T14:10:57.923Z,45.10
2019-04-21T14:13:26.835Z,44.90
2019-04-21T14:15:57.957Z,45.00
2019-04-21T14:18:26.891Z,44.80
2019-04-21T14:20:55.681Z,44.80
2019-04-21T14:23:32.397Z,43.50
2019-04-21T14:25:55.598Z,42.80
2019-04-21T14:28:24.499Z,41.00
2019-04-21T14:30:54.367Z,39.80
2019-04-21T14:33:23.724Z,39.30
2019-04-21T14:35:52.820Z,38.70
2019-04-21T14:38:22.759Z,38.90
2019-04-21T14:40:54.411Z,39.00
2019-04-21T14:43:23.709Z,39.40
2019-04-21T14:46:04.790Z,40.50
2019-04-21T14:48:47.425Z,40.00
2019-04-21T14:51:25.043Z,40.20
2019-04-21T14:53:56.362Z,40.80
2019-04-21T14:56:27.016Z,40.70
2019-04-21T14:59:00.944Z,39.70
2019-04-21T15:01:31.543Z,38.50
2019-04-21T15:04:03.821Z,38.50
2019-04-21T15:06:33.693Z,38.30
2019-04-21T15:09:03.032Z,38.60
2019-04-21T15:11:31.974Z,39.10
2019-04-21T15:14:02.019Z,39.50
2019-04-21T15:16:31.180Z,39.70
2019-04-21T15:18:59.992Z,39.80
2019-04-21T15:21:29.108Z,39.90
2019-04-21T15:23:58.225Z,39.60
2019-04-21T15:26:28.427Z,39.40
2019-04-21T15:28:57.332Z,39.40
2019-04-21T15:31:30.603Z,39.60
2019-04-21T15:33:57.556Z,39.00
2019-04-21T15:36:27.265Z,38.50
2019-04-21T15:38:56.199Z,38.10
2019-04-21T15:41:26.774Z,39.00
2019-04-21T15:43:56.451Z,39.40
2019-04-21T15:46:29.761Z,39.30
2019-04-21T15:48:59.044Z,38.80
2019-04-21T15:51:29.620Z,39.20
2019-04-21T15:54:00.450Z,39.20
2019-04-21T15:56:40.774Z,39.40
2019-04-21T15:59:14.763Z,39.80
2019-04-21T16:01:57.262Z,39.70
2019-04-21T16:04:25.997Z,39.70
2019-04-21T16:06:57.479Z,41.10
2019-04-21T16:09:27.744Z,42.10
2019-04-21T16:11:55.894Z,41.90
2019-04-21T16:14:24.862Z,42.20
2019-04-21T16:16:53.857Z,42.70
2019-04-21T16:19:23.030Z,43.70
2019-04-21T16:21:52.792Z,44.60
2019-04-21T16:24:23.175Z,45.10
2019-04-21T16:26:52.964Z,45.50
2019-04-21T16:29:22.999Z,45.40
2019-04-21T16:31:53.168Z,44.90
2019-04-21T16:34:22.097Z,44.60
2019-04-21T16:36:51.794Z,45.70
2019-04-21T16:39:23.151Z,45.50
2019-04-21T16:41:52.093Z,46.50
2019-04-21T16:44:25.183Z,47.70
2019-04-21T16:46:54.112Z,48.40
2019-04-21T16:49:22.852Z,49.20
2019-04-21T16:51:53.959Z,50.10
2019-04-21T16:54:24.552Z,51.10
2019-04-21T16:56:54.962Z,52.50
2019-04-21T16:59:28.777Z,52.50
2019-04-21T17:01:58.747Z,53.30
2019-04-21T17:04:28.730Z,53.90
2019-04-21T17:06:58.815Z,54.20
2019-04-21T17:09:28.556Z,54.70
2019-04-21T17:12:01.775Z,55.20
2019-04-21T17:14:46.254Z,55.80
2019-04-21T17:17:25.020Z,56.30
2019-04-21T17:19:36.026Z,56.90
2019-04-21T17:22:01.895Z,57.40
2019-04-21T17:24:30.685Z,57.80
2019-04-21T17:26:59.603Z,58.10
2019-04-21T17:29:28.589Z,58.50
2019-04-21T17:31:57.436Z,59.00
2019-04-21T17:34:32.521Z,59.20
2019-04-21T17:37:01.311Z,59.40
2019-04-21T17:39:31.111Z,59.90
2019-04-21T17:42:11.743Z,60.40
2019-04-21T17:44:30.841Z,61.10
2019-04-21T17:47:20.088Z,61.80
2019-04-21T17:49:39.163Z,62.10
2019-04-21T17:52:16.290Z,62.70
2019-04-21T17:54:50.734Z,63.20
2019-04-21T17:57:36.842Z,63.60
2019-04-21T18:00:25.914Z,63.80
2019-04-21T18:02:41.413Z,64.30
2019-04-21T18:05:19.363Z,64.40
2019-04-21T18:07:43.346Z,64.60
2019-04-21T18:10:07.340Z,64.80
2019-04-21T18:12:36.114Z,65.00
2019-04-21T18:14:59.830Z,65.20
2019-04-21T18:17:22.662Z,65.30
2019-04-21T18:19:53.623Z,65.60
2019-04-21T18:22:31.325Z,65.90
2019-04-21T18:25:04.709Z,65.90
2019-04-21T18:27:29.790Z,65.80
2019-04-21T18:30:02.524Z,65.80
2019-04-21T18:32:36.140Z,65.80
2019-04-21T18:35:13.550Z,65.40
2019-04-21T18:37:59.792Z,65.50
2019-04-21T18:40:27.462Z,66.40
2019-04-21T18:43:23.494Z,66.50
2019-04-21T18:48:19.100Z,67.00
2019-04-21T18:50:50.981Z,67.30
2019-04-21T18:53:27.050Z,67.30
2019-04-21T18:55:47.879Z,67.50
2019-04-21T18:58:15.805Z,67.70
2019-04-21T19:00:45.780Z,67.90
2019-04-21T19:03:20.823Z,68.10
2019-04-21T19:05:52.050Z,68.00
2019-04-21T19:08:30.630Z,68.90
2019-04-21T19:11:08.828Z,68.30
2019-04-21T19:13:44.477Z,68.70
2019-04-21T19:19:09.766Z,70.20
2019-04-21T19:21:07.457Z,69.60
2019-04-21T19:24:06.758Z,70.00
2019-04-21T19:26:25.298Z,70.10
2019-04-21T19:28:47.537Z,70.00
2019-04-21T19:31:15.918Z,70.00
2019-04-21T19:33:36.111Z,70.10
2019-04-21T19:35:57.677Z,69.80
2019-04-21T19:38:35.036Z,70.00
2019-04-21T19:41:15.680Z,69.90
2019-04-21T19:43:49.287Z,69.70
2019-04-21T19:46:13.936Z,69.50
2019-04-21T19:48:55.297Z,69.80
2019-04-21T19:51:15.146Z,70.10
2019-04-21T19:53:44.568Z,70.40
2019-04-21T19:56:03.782Z,70.30
2019-04-21T19:58:38.462Z,70.00
2019-04-21T20:01:03.543Z,70.20
2019-04-21T20:03:32.577Z,70.40
2019-04-21T20:06:11.787Z,70.60
2019-04-21T20:08:44.236Z,71.00
2019-04-21T20:11:19.096Z,71.10
2019-04-21T20:14:03.307Z,71.10
2019-04-21T20:16:23.096Z,71.20
2019-04-21T20:18:42.383Z,70.80
2019-04-21T20:21:06.106Z,70.50
2019-04-21T20:23:38.007Z,70.40
2019-04-21T20:26:08.579Z,70.30
2019-04-21T20:28:48.975Z,70.30
2019-04-21T20:31:23.882Z,70.50
2019-04-21T20:34:02.266Z,70.60
2019-04-21T20:36:31.386Z,70.20
2019-04-21T20:38:48.904Z,70.30
2019-04-21T20:41:22.698Z,69.90
2019-04-21T20:44:00.848Z,69.50
2019-04-21T20:46:29.281Z,69.80
2019-04-21T20:49:00.044Z,70.00
2019-04-21T20:51:35.770Z,70.00
2019-04-21T20:53:59.002Z,70.10
2019-04-21T20:56:26.883Z,70.40
2019-04-21T20:58:59.746Z,70.90
2019-04-21T21:01:35.866Z,71.10
2019-04-21T21:03:57.671Z,69.90
2019-04-21T21:06:33.746Z,69.70
2019-04-21T21:09:09.087Z,69.20
2019-04-21T21:11:41.085Z,68.50
2019-04-21T21:14:11.892Z,67.80
2019-04-21T21:16:46.204Z,67.40
2019-04-21T21:19:18.236Z,66.90
2019-04-21T21:21:40.206Z,65.50
2019-04-21T21:24:10.098Z,65.00
2019-04-21T21:26:44.081Z,64.40
2019-04-21T21:29:18.315Z,64.10
2019-04-21T21:31:48.870Z,64.30
2019-04-21T21:34:25.763Z,63.90
2019-04-21T21:36:51.107Z,63.60
2019-04-21T21:39:18.399Z,63.60
2019-04-21T21:41:40.616Z,63.30
2019-04-21T21:44:10.928Z,63.60
2019-04-21T21:46:50.580Z,63.90
2019-04-21T21:49:22.643Z,63.60
2019-04-21T21:51:49.920Z,63.60
2019-04-21T21:54:07.591Z,63.30
2019-04-21T21:56:36.556Z,63.40
2019-04-21T21:59:14.976Z,62.90
2019-04-21T22:01:44.103Z,63.20
2019-04-21T22:04:15.366Z,63.30
2019-04-21T22:06:47.155Z,62.90
2019-04-21T22:09:12.653Z,62.70
2019-04-21T22:11:42.209Z,62.50
2019-04-21T22:14:17.087Z,62.60
2019-04-21T22:16:49.317Z,62.00
2019-04-21T22:19:34.021Z,62.10
2019-04-21T22:21:59.533Z,63.50
2019-04-21T22:24:29.314Z,62.30
2019-04-21T22:26:43.221Z,62.50
2019-04-21T22:29:12.062Z,62.00
2019-04-21T22:31:41.564Z,61.80
2019-04-21T22:34:14.451Z,61.90
2019-04-21T22:36:52.778Z,61.70
2019-04-21T22:39:29.697Z,61.90
2019-04-21T22:41:46.672Z,62.10
2019-04-21T22:44:20.542Z,62.30
2019-04-21T22:46:58.626Z,61.70
2019-04-21T22:49:21.525Z,61.80
2019-04-21T22:51:51.987Z,61.50
2019-04-21T22:54:26.824Z,61.50
2019-04-21T22:56:59.247Z,61.80
2019-04-21T22:59:24.117Z,62.00
2019-04-21T23:01:52.648Z,61.80
2019-04-21T23:04:26.623Z,61.40
2019-04-21T23:07:00.049Z,61.40
2019-04-21T23:09:23.008Z,61.30
2019-04-21T23:11:55.833Z,61.50
2019-04-21T23:14:23.652Z,61.40
2019-04-21T23:16:54.707Z,61.10
2019-04-21T23:19:35.716Z,60.80
2019-04-21T23:22:12.122Z,61.00
2019-04-21T23:24:45.573Z,61.10
2019-04-21T23:27:11.122Z,60.90
2019-04-21T23:29:52.678Z,61.30
2019-04-21T23:32:08.492Z,60.90
2019-04-21T23:34:30.798Z,60.60
2019-04-21T23:37:03.269Z,60.60
2019-04-21T23:39:30.196Z,60.20
2019-04-21T23:41:57.787Z,60.30
2019-04-21T23:44:28.139Z,60.20
2019-04-21T23:47:02.816Z,60.00
2019-04-21T23:49:39.349Z,60.40
2019-04-21T23:52:03.088Z,60.00
2019-04-21T23:54:29.242Z,60.10
2019-04-21T23:57:01.706Z,60.30
2019-04-21T23:59:31.230Z,60.70
